Time;durP1;ratioP1;P1;durP2;ratioP2;P2;SDS_P1;SDS_P2;PMS_P1;PMS_P2;Temp;Humidity;BMP_temperature;BMP_pressure;BME280_temperature;BME280_humidity;BME280_pressure;Samples;Min_cycle;Max_cycle;Signal;HPM_P1;HPM_P2
2022/07/07 00:01:42;;;;;;;3.20;2.50;;;17.00;55.20;;;;;;5222209;28;20257;-47
2022/07/07 00:04:13;;;;;;;2.13;1.60;;;17.00;55.40;;;;;;5245792;28;20185;-46
2022/07/07 00:06:43;;;;;;;1.33;1.20;;;17.00;55.40;;;;;;5211579;28;20183;-47
2022/07/07 00:09:14;;;;;;;2.10;0.83;;;17.00;55.60;;;;;;5234057;28;20696;-47
2022/07/07 00:11:45;;;;;;;2.00;1.40;;;17.00;56.20;;;;;;5228446;28;20218;-47
2022/07/07 00:14:15;;;;;;;10.93;1.20;;;17.00;55.60;;;;;;5218214;28;20538;-47
2022/07/07 00:16:46;;;;;;;1.47;1.37;;;17.00;55.70;;;;;;5229185;28;20269;-46
2022/07/07 00:19:17;;;;;;;7.10;1.30;;;17.00;55.70;;;;;;5228536;28;20198;-47
2022/07/07 00:21:47;;;;;;;2.30;1.23;;;17.00;55.60;;;;;;5231823;28;20182;-48
2022/07/07 00:24:18;;;;;;;3.57;0.90;;;17.10;55.80;;;;;;5209325;28;20171;-46
2022/07/07 00:26:49;;;;;;;4.60;1.37;;;17.10;55.80;;;;;;5198321;28;20273;-47
2022/07/07 00:29:20;;;;;;;1.50;1.27;;;17.10;55.90;;;;;;5231162;28;20686;-46
2022/07/07 00:31:50;;;;;;;2.93;1.00;;;17.00;55.80;;;;;;5232317;28;20610;-47
2022/07/07 00:34:21;;;;;;;0.83;0.83;;;17.10;55.90;;;;;;5225073;28;20520;-47
2022/07/07 00:36:52;;;;;;;1.73;1.00;;;17.10;55.90;;;;;;5230462;28;20202;-46
2022/07/07 00:39:22;;;;;;;1.37;0.90;;;17.10;55.90;;;;;;5236070;28;20684;-47
2022/07/07 00:41:53;;;;;;;4.50;1.00;;;17.10;56.00;;;;;;5225978;28;20253;-46
2022/07/07 00:44:24;;;;;;;3.03;1.10;;;17.10;56.10;;;;;;5227596;28;20190;-47
2022/07/07 00:46:56;;;;;;;6.10;0.97;;;17.10;56.20;;;;;;5218742;28;20208;-46
2022/07/07 00:49:27;;;;;;;1.97;0.70;;;17.10;56.20;;;;;;5246840;28;20213;-46
2022/07/07 00:51:59;;;;;;;1.50;1.00;;;17.10;56.30;;;;;;5235703;28;20437;-51
2022/07/07 00:54:29;;;;;;;0.67;0.67;;;17.00;56.20;;;;;;5252893;28;20434;-47
2022/07/07 00:57:01;;;;;;;1.17;0.90;;;17.10;56.30;;;;;;5231107;28;20448;-46
2022/07/07 00:59:34;;;;;;;2.83;1.20;;;17.10;56.20;;;;;;5228540;28;20198;-46
2022/07/07 01:02:05;;;;;;;0.90;0.90;;;17.10;56.20;;;;;;5234987;28;20431;-46
2022/07/07 01:04:36;;;;;;;2.40;0.90;;;17.10;56.30;;;;;;5224324;28;20432;-46
2022/07/07 01:07:07;;;;;;;2.13;0.90;;;17.10;56.60;;;;;;5225126;28;20170;-46
2022/07/07 01:09:38;;;;;;;5.13;0.80;;;17.00;56.70;;;;;;5236257;28;20213;-46
2022/07/07 01:12:09;;;;;;;0.80;0.70;;;17.00;56.90;;;;;;5237413;28;20417;-47
2022/07/07 01:14:40;;;;;;;0.90;0.87;;;17.00;57.30;;;;;;5229698;28;20819;-46
2022/07/07 01:17:10;;;;;;;0.80;0.60;;;16.90;58.20;;;;;;5233417;28;20737;-47
2022/07/07 01:19:41;;;;;;;3.20;0.90;;;16.80;59.90;;;;;;5230713;28;20202;-47
2022/07/07 01:22:17;;;;;;;0.70;0.60;;;16.60;61.90;;;;;;5224868;28;20233;-47
2022/07/07 01:24:47;;;;;;;3.60;0.87;;;16.40;64.40;;;;;;5229723;28;20184;-46
2022/07/07 01:27:20;;;;;;;1.13;0.70;;;16.30;67.20;;;;;;5223901;28;20420;-46
2022/07/07 01:29:54;;;;;;;0.73;0.70;;;16.20;70.00;;;;;;5235347;28;20284;-46
2022/07/07 01:32:26;;;;;;;1.10;0.60;;;16.10;74.00;;;;;;5235238;28;20440;-46
2022/07/07 01:34:57;;;;;;;2.00;0.87;;;15.90;81.20;;;;;;5231282;28;20460;-47
2022/07/07 01:37:27;;;;;;;1.53;1.07;;;15.70;91.70;;;;;;5238340;28;20866;-46
2022/07/07 01:39:58;;;;;;;6.37;1.00;;;15.50;96.30;;;;;;5232699;28;20282;-46
2022/07/07 01:42:28;;;;;;;4.67;1.13;;;15.30;99.90;;;;;;5233250;28;20186;-47
2022/07/07 01:44:59;;;;;;;2.00;0.80;;;15.10;99.90;;;;;;5238140;28;20208;-46
2022/07/07 01:47:31;;;;;;;6.03;1.23;;;15.00;99.90;;;;;;5229338;28;20646;-47
2022/07/07 01:50:01;;;;;;;1.17;1.00;;;14.90;99.90;;;;;;5238632;28;20704;-46
2022/07/07 01:52:32;;;;;;;0.73;0.73;;;14.80;99.90;;;;;;5230732;28;20432;-45
2022/07/07 01:55:03;;;;;;;0.97;0.90;;;14.70;99.90;;;;;;5241091;28;20631;-45
2022/07/07 01:57:34;;;;;;;4.53;0.67;;;14.70;99.90;;;;;;5230063;28;20206;-46
2022/07/07 02:00:06;;;;;;;4.23;1.00;;;14.60;99.90;;;;;;5247391;28;20445;-46
2022/07/07 02:02:36;;;;;;;2.27;0.80;;;14.60;99.90;;;;;;5238459;28;20187;-47
2022/07/07 02:05:07;;;;;;;1.37;1.00;;;14.50;99.90;;;;;;5225776;28;20426;-46
2022/07/07 02:07:38;;;;;;;0.83;0.83;;;14.50;99.90;;;;;;5230728;28;20189;-47
2022/07/07 02:10:08;;;;;;;1.20;1.03;;;14.50;99.90;;;;;;5231628;28;20207;-47
2022/07/07 02:12:39;;;;;;;2.47;1.00;;;14.40;99.90;;;;;;5212586;28;20183;-46
2022/07/07 02:15:10;;;;;;;2.50;1.20;;;14.30;99.90;;;;;;5212783;28;20210;-46
2022/07/07 02:17:40;;;;;;;1.20;1.10;;;14.30;99.90;;;;;;5243576;28;20206;-46
2022/07/07 02:20:11;;;;;;;0.97;0.90;;;14.20;99.90;;;;;;5238503;28;20206;-45
2022/07/07 02:22:42;;;;;;;3.40;1.17;;;14.10;99.90;;;;;;5212749;28;20175;-46
2022/07/07 02:25:12;;;;;;;4.57;1.83;;;14.10;99.90;;;;;;5230960;28;20206;-46
2022/07/07 02:27:43;;;;;;;5.20;1.27;;;13.90;99.90;;;;;;5246725;28;20550;-47
2022/07/07 02:30:13;;;;;;;10.40;2.30;;;13.90;99.90;;;;;;5230409;28;20289;-47
2022/07/07 02:32:44;;;;;;;1.40;1.30;;;13.80;99.90;;;;;;5225252;28;20194;-46
2022/07/07 02:35:15;;;;;;;3.23;1.83;;;13.80;99.90;;;;;;5233799;28;20204;-46
2022/07/07 02:37:46;;;;;;;6.17;1.20;;;13.80;99.90;;;;;;5243001;28;20219;-47
2022/07/07 02:40:16;;;;;;;1.17;1.07;;;13.70;99.90;;;;;;5226937;28;20195;-46
2022/07/07 02:42:47;;;;;;;2.43;1.50;;;13.80;99.90;;;;;;5234192;28;20177;-46
2022/07/07 02:45:17;;;;;;;8.23;1.90;;;13.70;99.90;;;;;;5249817;28;20178;-47
2022/07/07 02:47:48;;;;;;;3.00;1.50;;;13.70;99.90;;;;;;5232984;28;20186;-46
2022/07/07 02:50:19;;;;;;;5.13;1.00;;;13.70;99.90;;;;;;5229108;28;20305;-46
2022/07/07 02:52:49;;;;;;;4.47;1.60;;;13.70;99.90;;;;;;5247431;28;20186;-45
2022/07/07 02:55:20;;;;;;;2.10;1.33;;;13.60;99.90;;;;;;5241222;28;20183;-46
2022/07/07 02:57:51;;;;;;;5.10;1.60;;;13.60;99.90;;;;;;5216509;28;20648;-46
2022/07/07 03:00:21;;;;;;;4.77;1.83;;;13.60;99.90;;;;;;5229579;28;20183;-46
2022/07/07 03:02:53;;;;;;;2.93;1.53;;;13.50;99.90;;;;;;5233172;28;20815;-46
2022/07/07 03:05:23;;;;;;;2.60;2.10;;;13.60;99.90;;;;;;5244716;28;20178;-46
2022/07/07 03:07:54;;;;;;;2.57;2.23;;;13.60;99.90;;;;;;5234011;28;20429;-46
2022/07/07 03:10:25;;;;;;;2.67;1.80;;;13.70;99.90;;;;;;5244654;28;20203;-46
2022/07/07 03:12:56;;;;;;;1.40;1.30;;;13.70;99.90;;;;;;5229678;28;20433;-46
2022/07/07 03:15:26;;;;;;;9.53;2.20;;;13.70;99.90;;;;;;5219204;28;20433;-46
2022/07/07 03:17:57;;;;;;;12.87;2.07;;;13.80;99.90;;;;;;5240809;28;20235;-46
2022/07/07 03:20:28;;;;;;;5.23;2.17;;;13.70;99.90;;;;;;5228205;28;20199;-46
2022/07/07 03:22:58;;;;;;;3.53;2.20;;;13.60;99.90;;;;;;5239797;28;20171;-46
2022/07/07 03:25:29;;;;;;;2.97;2.70;;;13.60;99.90;;;;;;5231457;28;20171;-47
2022/07/07 03:27:59;;;;;;;1.53;1.43;;;13.60;99.90;;;;;;5236179;28;20186;-46
2022/07/07 03:30:30;;;;;;;3.93;1.53;;;14.00;99.90;;;;;;5261769;23;20313;-49
2022/07/07 03:33:01;;;;;;;6.57;2.67;;;13.70;99.90;;;;;;5240296;28;20189;-48
2022/07/07 03:35:31;;;;;;;3.30;2.53;;;13.70;99.90;;;;;;5238982;28;20182;-50
2022/07/07 03:38:02;;;;;;;3.20;2.40;;;13.70;99.90;;;;;;5237523;28;20209;-50
2022/07/07 03:40:34;;;;;;;5.13;2.50;;;13.60;99.90;;;;;;5243161;28;20195;-49
2022/07/07 03:43:04;;;;;;;4.47;2.27;;;13.80;99.90;;;;;;5221621;28;20175;-49
2022/07/07 03:45:35;;;;;;;4.47;2.60;;;13.80;99.90;;;;;;5242350;28;20411;-51
2022/07/07 03:48:06;;;;;;;2.90;2.70;;;13.60;99.90;;;;;;5244545;28;20236;-49
2022/07/07 03:50:36;;;;;;;2.57;2.47;;;13.50;99.90;;;;;;5230874;28;20628;-50
2022/07/07 03:53:07;;;;;;;7.57;2.90;;;13.40;99.90;;;;;;5246628;28;20178;-50
2022/07/07 03:55:38;;;;;;;3.00;2.77;;;13.50;99.90;;;;;;5245086;28;20185;-50
2022/07/07 03:58:08;;;;;;;4.00;2.97;;;13.50;99.90;;;;;;5246785;28;20592;-49
2022/07/07 04:00:39;;;;;;;13.63;3.37;;;13.40;99.90;;;;;;5231156;28;20205;-50
2022/07/07 04:03:09;;;;;;;2.90;2.67;;;13.30;99.90;;;;;;5239196;28;20183;-49
2022/07/07 04:05:40;;;;;;;3.90;2.30;;;13.30;99.90;;;;;;5229696;28;20529;-49
2022/07/07 04:08:11;;;;;;;2.90;2.80;;;13.30;99.90;;;;;;5239249;28;20680;-50
2022/07/07 04:10:41;;;;;;;2.83;2.70;;;13.30;99.90;;;;;;5223786;28;20229;-51
2022/07/07 04:13:12;;;;;;;4.23;2.63;;;13.30;99.90;;;;;;5228781;28;20603;-49
2022/07/07 04:15:42;;;;;;;3.87;2.80;;;13.30;99.90;;;;;;5230090;28;20633;-49
2022/07/07 04:18:13;;;;;;;5.87;3.10;;;13.30;99.90;;;;;;5233838;28;20290;-49
2022/07/07 04:20:44;;;;;;;3.00;2.80;;;13.30;99.90;;;;;;5230379;28;20202;-50
2022/07/07 04:23:14;;;;;;;3.30;3.10;;;13.30;99.90;;;;;;5229610;28;20250;-49
2022/07/07 04:25:45;;;;;;;4.23;2.83;;;13.30;99.90;;;;;;5241764;28;20187;-50
2022/07/07 04:28:16;;;;;;;4.23;3.07;;;13.40;99.90;;;;;;5242800;28;20646;-49
2022/07/07 04:30:46;;;;;;;5.57;3.30;;;13.40;99.90;;;;;;5230473;28;20220;-49
2022/07/07 04:33:17;;;;;;;4.00;3.10;;;13.40;99.90;;;;;;5245696;28;20178;-51
2022/07/07 04:35:48;;;;;;;4.40;3.30;;;13.40;99.90;;;;;;5236887;28;20265;-49
2022/07/07 04:38:18;;;;;;;3.53;2.90;;;13.30;99.90;;;;;;5229241;28;20236;-48
2022/07/07 04:40:49;;;;;;;3.30;3.00;;;13.40;99.90;;;;;;5246721;28;20205;-51
2022/07/07 04:43:19;;;;;;;5.87;4.00;;;13.30;99.90;;;;;;5227651;28;20178;-50
2022/07/07 04:45:50;;;;;;;3.73;3.43;;;13.40;99.90;;;;;;5230164;28;20285;-49
2022/07/07 04:48:20;;;;;;;3.27;2.97;;;13.50;99.90;;;;;;5235549;28;20233;-49
2022/07/07 04:50:51;;;;;;;5.27;3.20;;;13.60;99.90;;;;;;5241301;28;20198;-48
2022/07/07 04:53:22;;;;;;;5.33;2.87;;;13.60;99.90;;;;;;5232288;28;20181;-50
2022/07/07 04:55:52;;;;;;;4.77;3.80;;;13.60;99.90;;;;;;5240954;28;20597;-49
2022/07/07 04:58:23;;;;;;;6.23;3.90;;;13.60;99.90;;;;;;5240926;28;20201;-50
2022/07/07 05:00:54;;;;;;;3.63;3.33;;;13.70;99.90;;;;;;5229954;28;20543;-50
2022/07/07 05:03:24;;;;;;;8.30;2.97;;;13.60;99.90;;;;;;5230733;28;20490;-50
2022/07/07 05:05:55;;;;;;;5.70;4.37;;;13.70;99.90;;;;;;5224416;28;20175;-49
2022/07/07 05:08:25;;;;;;;3.57;3.30;;;13.60;99.90;;;;;;5243967;28;20646;-49
2022/07/07 05:10:56;;;;;;;3.77;3.53;;;13.60;99.90;;;;;;5213948;28;20599;-49
2022/07/07 05:13:27;;;;;;;3.53;3.20;;;13.60;99.90;;;;;;5235534;28;20645;-49
2022/07/07 05:15:58;;;;;;;6.10;3.63;;;13.60;99.90;;;;;;5209764;28;20538;-50
2022/07/07 05:18:30;;;;;;;5.30;3.33;;;13.60;99.90;;;;;;5214790;28;20266;-50
2022/07/07 05:21:00;;;;;;;3.13;2.73;;;13.60;99.90;;;;;;5220788;28;20230;-51
2022/07/07 05:23:31;;;;;;;3.90;3.37;;;13.60;99.90;;;;;;5230813;28;20468;-49
2022/07/07 05:26:02;;;;;;;3.67;3.47;;;13.70;99.90;;;;;;5216550;28;20229;-50
2022/07/07 05:28:33;;;;;;;9.13;3.97;;;13.60;99.90;;;;;;5227094;28;20233;-50
2022/07/07 05:31:04;;;;;;;4.50;3.73;;;13.70;99.90;;;;;;5226925;28;20595;-50
2022/07/07 05:33:35;;;;;;;4.30;3.90;;;13.60;99.90;;;;;;5210969;28;20444;-51
2022/07/07 05:36:06;;;;;;;6.57;4.30;;;13.60;99.90;;;;;;5237501;28;20277;-52
2022/07/07 05:38:37;;;;;;;9.30;4.03;;;13.60;99.90;;;;;;5213167;28;20261;-51
2022/07/07 05:41:07;;;;;;;3.57;3.37;;;13.60;99.90;;;;;;5227958;28;20536;-51
2022/07/07 05:43:38;;;;;;;3.43;3.20;;;13.70;99.90;;;;;;5227924;28;20183;-51
2022/07/07 05:46:08;;;;;;;4.23;2.93;;;13.70;99.90;;;;;;5226997;28;20233;-50
2022/07/07 05:48:39;;;;;;;5.93;4.37;;;13.60;99.90;;;;;;5219529;28;20550;-50
2022/07/07 05:51:10;;;;;;;3.90;3.70;;;13.60;99.90;;;;;;5236617;28;20567;-51
2022/07/07 05:53:40;;;;;;;7.60;4.60;;;13.60;99.90;;;;;;5226933;28;20229;-50
2022/07/07 05:56:11;;;;;;;6.40;4.50;;;13.70;99.90;;;;;;5226222;28;20206;-51
2022/07/07 05:58:42;;;;;;;4.50;3.47;;;13.70;99.90;;;;;;5209156;28;20179;-51
2022/07/07 06:01:13;;;;;;;3.80;3.50;;;13.70;99.90;;;;;;5226735;28;20230;-50
2022/07/07 06:03:43;;;;;;;4.23;3.87;;;13.70;99.90;;;;;;5226258;28;20603;-50
2022/07/07 06:06:14;;;;;;;5.77;4.87;;;13.70;99.90;;;;;;5207464;28;20512;-51
2022/07/07 06:08:45;;;;;;;7.37;4.87;;;13.60;99.90;;;;;;5227638;28;20677;-50
2022/07/07 06:11:15;;;;;;;4.33;4.07;;;13.80;99.90;;;;;;5218344;28;20187;-50
2022/07/07 06:13:46;;;;;;;5.23;4.23;;;13.90;99.90;;;;;;5208253;28;20187;-51
2022/07/07 06:16:17;;;;;;;15.37;4.90;;;13.90;99.90;;;;;;5228263;28;20566;-51
2022/07/07 06:18:47;;;;;;;5.80;4.53;;;14.00;99.90;;;;;;5212742;28;20551;-51
2022/07/07 06:21:18;;;;;;;12.10;4.70;;;13.90;99.90;;;;;;5230077;28;20670;-51
2022/07/07 06:23:48;;;;;;;4.43;4.13;;;13.90;99.90;;;;;;5213306;28;20522;-51
2022/07/07 06:26:19;;;;;;;8.10;4.10;;;14.00;99.90;;;;;;5219785;28;20218;-51
2022/07/07 06:28:49;;;;;;;4.97;4.50;;;14.10;99.90;;;;;;5231193;28;20265;-49
2022/07/07 06:31:20;;;;;;;4.87;4.47;;;14.00;99.90;;;;;;5230093;28;20199;-51
2022/07/07 06:33:51;;;;;;;5.33;4.90;;;14.00;99.90;;;;;;5217535;28;20190;-52
2022/07/07 06:36:21;;;;;;;5.37;4.87;;;14.00;99.90;;;;;;5223507;28;20677;-51
2022/07/07 06:38:52;;;;;;;4.30;4.00;;;14.00;99.90;;;;;;5231356;28;20248;-51
2022/07/07 06:41:23;;;;;;;4.10;3.70;;;13.90;99.90;;;;;;5215336;28;20186;-52
2022/07/07 06:43:54;;;;;;;4.00;3.80;;;13.90;99.90;;;;;;5229344;28;20175;-51
2022/07/07 06:46:24;;;;;;;4.43;4.13;;;13.90;99.90;;;;;;5210805;28;20417;-51
2022/07/07 06:48:56;;;;;;;7.63;5.40;;;13.90;99.90;;;;;;5233533;28;20190;-51
2022/07/07 06:51:27;;;;;;;8.17;4.70;;;13.90;99.90;;;;;;5217221;28;20235;-51
2022/07/07 06:53:58;;;;;;;4.30;3.90;;;14.00;99.90;;;;;;5211359;28;20444;-51
2022/07/07 06:56:29;;;;;;;4.40;4.00;;;14.00;99.90;;;;;;5231687;28;20667;-50
2022/07/07 06:58:59;;;;;;;4.37;4.10;;;14.00;99.90;;;;;;5211879;28;20516;-50
2022/07/07 07:01:30;;;;;;;4.67;4.37;;;14.20;99.90;;;;;;5216058;28;20262;-52
2022/07/07 07:04:01;;;;;;;3.87;3.57;;;14.10;99.90;;;;;;5211211;28;20194;-50
2022/07/07 07:06:31;;;;;;;3.27;3.13;;;14.10;99.90;;;;;;5241715;28;20429;-49
2022/07/07 07:09:02;;;;;;;3.30;3.20;;;14.10;99.90;;;;;;5229923;28;20183;-52
2022/07/07 07:11:33;;;;;;;4.73;4.30;;;14.00;99.90;;;;;;5231967;28;20194;-52
2022/07/07 07:14:04;;;;;;;4.13;3.43;;;14.00;99.90;;;;;;5229931;28;20761;-52
2022/07/07 07:16:34;;;;;;;3.20;3.10;;;14.00;99.90;;;;;;5235132;28;20222;-51
2022/07/07 07:19:05;;;;;;;5.03;4.60;;;14.10;99.90;;;;;;5229517;28;20214;-51
2022/07/07 07:21:36;;;;;;;3.37;3.03;;;14.30;99.90;;;;;;5229240;28;20182;-50
2022/07/07 07:24:07;;;;;;;4.20;3.90;;;14.20;99.90;;;;;;5212469;28;20175;-51
2022/07/07 07:26:37;;;;;;;4.80;4.20;;;14.20;99.90;;;;;;5211643;28;20336;-51
2022/07/07 07:29:08;;;;;;;10.50;5.17;;;14.20;99.90;;;;;;5210133;28;20211;-51
2022/07/07 07:31:38;;;;;;;3.63;3.40;;;14.30;99.90;;;;;;5228652;28;20187;-52
2022/07/07 07:34:09;;;;;;;3.73;3.43;;;14.30;99.90;;;;;;5236045;28;20187;-51
2022/07/07 07:36:39;;;;;;;4.10;3.70;;;14.30;99.90;;;;;;5219076;28;20284;-49
2022/07/07 07:39:11;;;;;;;4.47;3.63;;;14.40;99.90;;;;;;5218053;28;20199;-50
2022/07/07 07:41:43;;;;;;;4.37;4.00;;;14.40;99.90;;;;;;5229612;28;20262;-50
2022/07/07 07:45:09;;;;;;;4.27;3.97;;;14.40;99.90;;;;;;5213088;28;20467;-50
2022/07/07 07:47:05;;;;;;;4.07;3.80;;;14.40;99.90;;;;;;5234808;28;20470;-50
2022/07/07 07:49:35;;;;;;;6.97;4.73;;;14.50;99.90;;;;;;5214086;28;20440;-50
2022/07/07 07:52:06;;;;;;;4.80;4.50;;;14.50;99.90;;;;;;5228293;28;20182;-51
2022/07/07 07:54:37;;;;;;;4.57;4.23;;;14.60;99.90;;;;;;5231131;28;20190;-50
2022/07/07 07:57:07;;;;;;;3.90;3.80;;;14.70;99.90;;;;;;5224541;28;20693;-50
2022/07/07 07:59:38;;;;;;;4.47;4.07;;;14.70;99.90;;;;;;5197629;28;20206;-51
2022/07/07 08:02:08;;;;;;;4.60;4.20;;;14.70;99.90;;;;;;5230767;28;20188;-51
2022/07/07 08:04:39;;;;;;;4.20;4.00;;;14.80;99.90;;;;;;5229504;28;20178;-51
2022/07/07 08:07:10;;;;;;;3.80;3.50;;;14.70;99.90;;;;;;5238391;28;20650;-50
2022/07/07 08:09:40;;;;;;;5.17;4.87;;;14.80;99.90;;;;;;5214127;28;20229;-50
2022/07/07 08:12:11;;;;;;;6.73;5.93;;;14.90;99.90;;;;;;5217323;28;20217;-50
2022/07/07 08:14:42;;;;;;;4.07;3.87;;;15.00;99.90;;;;;;5227791;28;20183;-50
2022/07/07 08:17:12;;;;;;;4.60;3.50;;;15.00;99.90;;;;;;5231801;28;21090;-50
2022/07/07 08:19:44;;;;;;;3.43;3.20;;;15.10;99.90;;;;;;5212194;28;20298;-50
2022/07/07 08:22:14;;;;;;;3.47;3.17;;;15.00;99.90;;;;;;5228176;28;20179;-50
2022/07/07 08:24:45;;;;;;;3.47;3.27;;;15.00;99.90;;;;;;5221961;28;20449;-50
2022/07/07 08:27:15;;;;;;;3.40;3.30;;;15.10;99.90;;;;;;5211358;28;20269;-49
2022/07/07 08:29:46;;;;;;;4.40;4.20;;;15.20;99.90;;;;;;5239495;28;20218;-51
2022/07/07 08:32:17;;;;;;;3.50;3.30;;;15.50;99.90;;;;;;5214128;28;20186;-50
2022/07/07 08:34:48;;;;;;;2.97;2.80;;;15.60;99.90;;;;;;5233351;28;20248;-50
2022/07/07 08:37:18;;;;;;;2.70;2.60;;;15.60;99.90;;;;;;5227816;28;20482;-50
2022/07/07 08:39:49;;;;;;;3.53;3.33;;;15.60;99.90;;;;;;5227053;28;20243;-51
2022/07/07 08:42:20;;;;;;;2.97;2.97;;;15.50;99.90;;;;;;5205445;28;20254;-50
2022/07/07 08:44:51;;;;;;;3.43;3.30;;;15.50;99.90;;;;;;5231470;28;20202;-50
2022/07/07 08:47:23;;;;;;;3.00;2.90;;;15.50;99.90;;;;;;5214033;28;20468;-50
2022/07/07 08:49:54;;;;;;;3.20;3.00;;;15.40;99.90;;;;;;5209651;28;20255;-49
2022/07/07 08:52:24;;;;;;;4.20;3.20;;;15.50;99.90;;;;;;5248301;28;20416;-50
2022/07/07 08:54:56;;;;;;;3.73;3.43;;;15.40;99.90;;;;;;5244312;28;20360;-50
2022/07/07 08:57:26;;;;;;;3.23;3.13;;;15.60;99.90;;;;;;5242387;28;20218;-50
2022/07/07 08:59:57;;;;;;;3.80;3.60;;;15.50;99.90;;;;;;5240102;28;20457;-49
2022/07/07 09:02:28;;;;;;;3.50;3.30;;;15.50;99.90;;;;;;5242722;28;20551;-50
2022/07/07 09:04:59;;;;;;;3.20;3.00;;;15.60;99.90;;;;;;5252558;28;20257;-50
2022/07/07 09:07:47;;;;;;;5.33;3.80;;;15.70;99.90;;;;;;5211453;28;20175;-50
2022/07/07 09:10:35;;;;;;;3.17;3.03;;;15.60;99.90;;;;;;5226966;28;20455;-50
2022/07/07 09:13:32;;;;;;;2.80;2.70;;;15.40;99.90;;;;;;5240708;28;20880;-51
2022/07/07 09:16:13;;;;;;;5.50;3.30;;;15.50;99.90;;;;;;5229870;28;20429;-49
2022/07/07 09:18:45;;;;;;;4.07;3.93;;;15.60;99.90;;;;;;5217283;28;20435;-51
2022/07/07 09:21:31;;;;;;;3.47;3.37;;;15.70;99.90;;;;;;5219604;28;20471;-51
2022/07/07 09:24:07;;;;;;;3.47;3.37;;;15.70;99.90;;;;;;5218553;28;20436;-51
2022/07/07 09:26:39;;;;;;;4.73;4.37;;;15.60;99.90;;;;;;5227960;28;20444;-51
2022/07/07 09:29:13;;;;;;;4.47;4.13;;;15.60;99.90;;;;;;5232236;28;20551;-51
2022/07/07 09:31:57;;;;;;;3.70;3.50;;;15.70;99.90;;;;;;5213757;28;20508;-51
2022/07/07 09:34:29;;;;;;;3.37;3.27;;;15.50;99.90;;;;;;5213967;28;20436;-52
2022/07/07 09:39:57;;;;;;;3.53;3.43;;;15.70;99.90;;;;;;5231251;28;20480;-50
2022/07/07 09:42:30;;;;;;;3.50;3.40;;;15.70;99.90;;;;;;5234125;28;20433;-51
2022/07/07 09:45:04;;;;;;;4.20;4.00;;;15.70;99.90;;;;;;5213980;28;20857;-51
2022/07/07 09:47:35;;;;;;;3.97;3.83;;;15.70;99.90;;;;;;5227697;28;20440;-51
2022/07/07 09:50:07;;;;;;;4.00;3.80;;;15.80;99.90;;;;;;5240252;28;20437;-51
2022/07/07 09:52:42;;;;;;;3.70;3.60;;;15.80;99.90;;;;;;5229869;28;20183;-52
2022/07/07 09:55:14;;;;;;;4.70;4.43;;;15.80;99.90;;;;;;5213377;28;20466;-51
2022/07/07 09:57:45;;;;;;;5.53;5.07;;;15.80;99.90;;;;;;5234867;28;20477;-52
2022/07/07 10:00:16;;;;;;;4.47;4.27;;;15.90;99.90;;;;;;5233750;28;20453;-52
2022/07/07 10:02:47;;;;;;;3.73;3.43;;;16.00;99.90;;;;;;5231470;28;20183;-51
2022/07/07 10:05:20;;;;;;;3.30;3.20;;;16.00;99.90;;;;;;5216891;28;20171;-51
2022/07/07 10:07:53;;;;;;;4.57;4.20;;;16.00;99.90;;;;;;5232412;28;20437;-52
2022/07/07 10:10:26;;;;;;;4.30;4.07;;;16.00;99.90;;;;;;5213718;28;20472;-51
2022/07/07 10:13:00;;;;;;;4.50;4.20;;;16.00;99.90;;;;;;5199016;28;20440;-51
2022/07/07 10:15:31;;;;;;;4.37;4.17;;;16.20;99.90;;;;;;5237415;28;20939;-51
2022/07/07 10:18:02;;;;;;;5.07;4.67;;;16.20;99.90;;;;;;5230598;28;20547;-51
2022/07/07 10:20:32;;;;;;;5.23;4.57;;;16.20;99.90;;;;;;5234042;28;21000;-51
2022/07/07 10:23:04;;;;;;;12.97;8.80;;;16.30;99.90;;;;;;5212531;28;20226;-52
2022/07/07 10:25:34;;;;;;;10.00;7.97;;;16.40;99.90;;;;;;5231799;28;20183;-52
2022/07/07 10:28:05;;;;;;;6.10;5.57;;;16.50;99.90;;;;;;5240934;28;20436;-52
2022/07/07 10:30:35;;;;;;;8.17;7.37;;;16.60;99.90;;;;;;5206163;28;20264;-52
2022/07/07 10:33:07;;;;;;;5.70;5.20;;;16.60;99.90;;;;;;5215374;28;20276;-53
2022/07/07 10:35:42;;;;;;;5.27;4.83;;;16.60;99.90;;;;;;5240464;28;20185;-52
2022/07/07 10:38:17;;;;;;;8.90;8.00;;;16.60;99.90;;;;;;5214500;28;20467;-51
2022/07/07 10:40:52;;;;;;;5.80;5.20;;;16.60;99.90;;;;;;5216901;28;20853;-51
2022/07/07 10:43:31;;;;;;;15.13;8.03;;;16.60;99.90;;;;;;5219849;28;20909;-51
2022/07/07 10:46:04;;;;;;;5.57;4.80;;;16.60;99.90;;;;;;5230595;28;20433;-50
2022/07/07 10:48:46;;;;;;;5.80;5.30;;;16.50;99.90;;;;;;5232632;28;20433;-53
2022/07/07 10:51:24;;;;;;;7.40;6.77;;;16.50;99.90;;;;;;5221821;28;20428;-52
2022/07/07 10:54:10;;;;;;;8.53;7.60;;;16.60;99.90;;;;;;5245645;28;20424;-53
2022/07/07 10:56:53;;;;;;;3.93;3.83;;;16.70;99.90;;;;;;5236047;28;20457;-50
2022/07/07 10:59:24;;;;;;;3.77;3.57;;;16.70;99.90;;;;;;5212173;28;20449;-52
2022/07/07 11:02:04;;;;;;;5.53;5.07;;;16.70;99.90;;;;;;5230363;28;20426;-52
2022/07/07 11:04:44;;;;;;;5.50;5.17;;;16.80;99.90;;;;;;5218517;28;20275;-51
2022/07/07 11:07:18;;;;;;;10.70;9.03;;;16.90;99.90;;;;;;5232576;28;20432;-52
2022/07/07 11:10:07;;;;;;;8.43;6.80;;;16.90;99.90;;;;;;5232393;28;20821;-52
2022/07/07 11:12:44;;;;;;;5.90;5.40;;;17.00;99.90;;;;;;5212488;28;20738;-52
2022/07/07 11:15:18;;;;;;;7.23;6.63;;;17.10;99.90;;;;;;5211437;28;20437;-51
2022/07/07 11:18:09;;;;;;;6.97;6.37;;;17.20;99.90;;;;;;5214100;28;20568;-52
2022/07/07 11:20:55;;;;;;;8.77;7.90;;;17.40;99.90;;;;;;5212063;28;20797;-51
2022/07/07 11:23:47;;;;;;;6.27;5.87;;;17.40;99.90;;;;;;5211341;28;20464;-55
2022/07/07 11:26:24;;;;;;;6.10;5.53;;;17.20;99.90;;;;;;5209035;28;20424;-52
2022/07/07 11:28:57;;;;;;;5.87;5.47;;;17.30;99.90;;;;;;5212553;28;20416;-55
2022/07/07 11:31:30;;;;;;;12.70;11.03;;;17.30;99.90;;;;;;5220524;28;20931;-52
2022/07/07 11:34:00;;;;;;;7.80;7.00;;;17.30;99.90;;;;;;5211101;28;20802;-52
2022/07/07 11:36:31;;;;;;;16.43;9.23;;;17.20;99.90;;;;;;5210651;28;20457;-53
2022/07/07 11:39:05;;;;;;;10.87;8.30;;;17.20;99.90;;;;;;5213756;28;20674;-51
2022/07/07 11:41:41;;;;;;;7.47;6.77;;;17.30;99.90;;;;;;5210162;28;20179;-51
2022/07/07 11:44:22;;;;;;;7.40;6.30;;;17.30;99.90;;;;;;5219753;28;20452;-53
2022/07/07 11:46:53;;;;;;;8.00;7.30;;;17.40;99.90;;;;;;5228617;28;20421;-51
2022/07/07 11:49:23;;;;;;;5.83;5.33;;;17.60;99.90;;;;;;5228153;28;20480;-51
2022/07/07 11:51:54;;;;;;;6.27;5.87;;;17.80;99.90;;;;;;5227759;28;20198;-53
2022/07/07 11:54:24;;;;;;;7.13;6.53;;;18.10;99.90;;;;;;5216098;28;20540;-52
2022/07/07 11:56:55;;;;;;;8.33;6.87;;;18.10;99.90;;;;;;5236885;28;20203;-53
2022/07/07 11:59:26;;;;;;;6.50;6.00;;;18.20;99.90;;;;;;5229422;28;20207;-52
2022/07/07 12:01:57;;;;;;;5.83;5.33;;;18.20;99.90;;;;;;5237518;28;20522;-52
2022/07/07 12:04:28;;;;;;;4.77;4.57;;;18.10;99.90;;;;;;5241493;28;20443;-51
2022/07/07 12:06:59;;;;;;;6.60;5.23;;;18.10;99.90;;;;;;5247528;28;20259;-52
2022/07/07 12:09:29;;;;;;;6.73;6.23;;;18.20;99.90;;;;;;5238721;28;20465;-51
2022/07/07 12:12:00;;;;;;;5.43;5.10;;;18.50;99.90;;;;;;5216775;28;20236;-51
2022/07/07 12:14:32;;;;;;;5.10;4.60;;;18.80;99.90;;;;;;5253597;28;20201;-53
2022/07/07 12:17:03;;;;;;;8.47;7.67;;;19.20;99.90;;;;;;5228880;28;20560;-53
2022/07/07 12:19:45;;;;;;;5.37;4.87;;;19.90;99.90;;;;;;5212794;28;20468;-52
2022/07/07 12:22:36;;;;;;;5.13;4.77;;;20.50;99.90;;;;;;5228635;28;20507;-52
2022/07/07 12:25:10;;;;;;;5.87;4.77;;;20.90;99.90;;;;;;5240227;28;20494;-51
2022/07/07 12:28:02;;;;;;;3.90;3.60;;;21.30;99.90;;;;;;5238862;28;20449;-52
2022/07/07 12:30:35;;;;;;;7.50;5.37;;;21.60;99.90;;;;;;5239844;28;20481;-53
2022/07/07 12:33:06;;;;;;;5.30;4.10;;;21.90;99.90;;;;;;5241994;28;20436;-53
2022/07/07 12:35:38;;;;;;;3.67;3.47;;;21.90;99.90;;;;;;5245825;28;20520;-53
2022/07/07 12:38:10;;;;;;;4.33;3.90;;;22.00;99.90;;;;;;5228376;28;20240;-51
2022/07/07 12:40:41;;;;;;;2.37;2.23;;;22.10;99.90;;;;;;5243549;28;21028;-53
2022/07/07 12:43:12;;;;;;;2.73;2.67;;;22.00;99.90;;;;;;5242373;28;20432;-52
2022/07/07 12:45:43;;;;;;;2.83;2.47;;;21.80;99.90;;;;;;5210355;28;21012;-53
2022/07/07 12:48:17;;;;;;;2.80;2.53;;;21.60;99.90;;;;;;5238761;28;20518;-51
2022/07/07 12:50:48;;;;;;;4.10;3.27;;;21.40;99.90;;;;;;5225475;28;20578;-51
2022/07/07 12:53:18;;;;;;;3.07;2.87;;;21.10;99.90;;;;;;5247610;28;20421;-52
2022/07/07 12:55:49;;;;;;;4.83;3.73;;;20.70;99.90;;;;;;5243761;28;20490;-52
2022/07/07 12:58:22;;;;;;;3.37;3.23;;;20.40;99.90;;;;;;5228322;28;20202;-51
2022/07/07 13:01:00;;;;;;;3.73;3.47;;;20.30;99.90;;;;;;5227621;28;20206;-50
2022/07/07 13:03:31;;;;;;;4.07;3.63;;;20.30;99.90;;;;;;5227468;28;20437;-51
2022/07/07 13:06:02;;;;;;;4.20;4.00;;;20.30;99.90;;;;;;5237125;28;20521;-53
2022/07/07 13:08:33;;;;;;;3.93;3.20;;;20.20;99.90;;;;;;5208305;28;20429;-52
2022/07/07 13:11:05;;;;;;;5.20;4.77;;;20.10;99.90;;;;;;5228918;28;20666;-51
2022/07/07 13:13:36;;;;;;;3.67;3.37;;;20.00;99.90;;;;;;5239900;28;20181;-52